createdAt,value
2018-08-19T00:02:07.967Z,98370.15
2018-08-19T00:04:37.384Z,98366.97
2018-08-19T00:07:05.272Z,98377.47
2018-08-19T00:09:33.324Z,98366.75
2018-08-19T00:12:01.201Z,98369.78
2018-08-19T00:14:31.848Z,98366.45
2018-08-19T00:17:00.500Z,98369.70
2018-08-19T00:19:28.871Z,98366.63
2018-08-19T00:21:56.671Z,98366.39
2018-08-19T00:24:24.647Z,98360.64
2018-08-19T00:26:52.360Z,98363.36
2018-08-19T00:29:25.504Z,98361.06
2018-08-19T00:31:53.983Z,98360.48
2018-08-19T00:34:29.988Z,98362.66
2018-08-19T00:36:57.937Z,98359.84
2018-08-19T00:39:25.590Z,98369.52
2018-08-19T00:41:53.403Z,98365.30
2018-08-19T00:44:21.180Z,98370.28
2018-08-19T00:46:48.886Z,98371.05
2018-08-19T00:49:16.507Z,98368.88
2018-08-19T00:51:49.628Z,98368.50
2018-08-19T00:54:17.349Z,98374.02
2018-08-19T00:56:47.045Z,98365.48
2018-08-19T00:59:14.662Z,98373.31
2018-08-19T01:01:44.017Z,98361.72
2018-08-19T01:04:11.755Z,98370.28
2018-08-19T01:06:45.047Z,98369.77
2018-08-19T01:09:12.722Z,98373.31
2018-08-19T01:11:41.844Z,98377.45
2018-08-19T01:14:11.060Z,98379.31
2018-08-19T01:16:38.805Z,98375.02
2018-08-19T01:19:06.812Z,98371.11
2018-08-19T01:21:34.507Z,98368.17
2018-08-19T01:24:04.277Z,98364.28
2018-08-19T01:26:34.472Z,98369.39
2018-08-19T01:29:02.159Z,98373.34
2018-08-19T01:31:29.824Z,98374.26
2018-08-19T01:33:57.589Z,98379.67
2018-08-19T01:36:26.838Z,98374.50
2018-08-19T01:38:54.450Z,98380.38
2018-08-19T01:41:22.137Z,98371.94
2018-08-19T01:44:00.837Z,98372.39
2018-08-19T01:46:31.891Z,98378.67
2018-08-19T01:48:59.525Z,98373.98
2018-08-19T01:51:27.219Z,98382.65
2018-08-19T01:53:54.863Z,98386.34
2018-08-19T01:56:22.436Z,98375.61
2018-08-19T01:58:50.067Z,98383.59
2018-08-19T02:01:17.719Z,98378.73
2018-08-19T02:03:45.376Z,98377.77
2018-08-19T02:06:13.039Z,98378.11
2018-08-19T02:08:40.742Z,98374.33
2018-08-19T02:11:24.099Z,98381.79
2018-08-19T02:13:53.574Z,98384.35
2018-08-19T02:16:21.334Z,98377.63
2018-08-19T02:18:48.978Z,98372.14
2018-08-19T02:21:16.641Z,98372.31
2018-08-19T02:23:44.312Z,98367.50
2018-08-19T02:26:15.092Z,98365.50
2018-08-19T02:28:42.734Z,98358.73
2018-08-19T02:31:10.544Z,98363.84
2018-08-19T02:33:38.120Z,98358.09
2018-08-19T02:36:06.877Z,98357.63
2018-08-19T02:38:35.384Z,98352.00
2018-08-19T02:41:03.123Z,98357.63
2018-08-19T02:43:30.877Z,98357.23
2018-08-19T02:45:58.551Z,98357.16
2018-08-19T02:48:45.257Z,98355.33
2018-08-19T02:51:15.760Z,98356.17
2018-08-19T02:53:44.658Z,98355.19
2018-08-19T02:56:13.162Z,98362.69
2018-08-19T02:58:41.402Z,98357.19
2018-08-19T03:01:09.316Z,98352.20
2018-08-19T03:03:36.975Z,98354.47
2018-08-19T03:06:04.695Z,98353.56
2018-08-19T03:08:32.426Z,98359.19
2018-08-19T03:11:00.041Z,98360.39
2018-08-19T03:13:27.677Z,98357.38
2018-08-19T03:15:56.303Z,98350.94
2018-08-19T03:18:24.099Z,98352.39
2018-08-19T03:20:51.754Z,98344.50
2018-08-19T03:23:19.426Z,98341.69
2018-08-19T03:25:47.064Z,98341.81
2018-08-19T03:28:14.695Z,98342.97
2018-08-19T03:30:47.939Z,98343.09
2018-08-19T03:33:15.582Z,98343.09
2018-08-19T03:35:43.151Z,98347.31
2018-08-19T03:38:13.927Z,98350.13
2018-08-19T03:40:41.597Z,98345.36
2018-08-19T03:43:09.907Z,98337.59
2018-08-19T03:45:37.573Z,98341.69
2018-08-19T03:48:05.305Z,98330.59
2018-08-19T03:50:36.637Z,98329.89
2018-08-19T03:53:04.565Z,98330.03
2018-08-19T03:55:32.955Z,98319.97
2018-08-19T03:58:02.459Z,98322.11
2018-08-19T04:00:32.204Z,98316.25
2018-08-19T04:02:59.891Z,98324.80
2018-08-19T04:06:00.040Z,98322.50
2018-08-19T04:08:33.834Z,98327.09
2018-08-19T04:11:04.390Z,98326.80
2018-08-19T04:13:34.495Z,98314.62
2018-08-19T04:16:04.738Z,98321.12
2018-08-19T04:18:34.540Z,98320.32
2018-08-19T04:21:17.423Z,98316.23
2018-08-19T04:23:47.831Z,98317.98
2018-08-19T04:26:15.458Z,98318.47
2018-08-19T04:28:44.118Z,98329.30
2018-08-19T04:31:17.191Z,98330.83
2018-08-19T04:33:47.216Z,98333.47
2018-08-19T04:36:16.289Z,98332.06
2018-08-19T04:38:44.000Z,98330.27
2018-08-19T04:41:12.047Z,98334.36
2018-08-19T04:43:39.706Z,98333.81
2018-08-19T04:46:07.380Z,98340.25
2018-08-19T04:48:35.045Z,98336.75
2018-08-19T04:51:02.690Z,98343.41
2018-08-19T04:53:31.747Z,98349.03
2018-08-19T04:55:59.627Z,98342.13
2018-08-19T04:58:27.241Z,98342.20
2018-08-19T05:00:54.844Z,98350.72
2018-08-19T05:03:22.531Z,98352.89
2018-08-19T05:05:50.151Z,98347.56
2018-08-19T05:08:17.920Z,98349.98
2018-08-19T05:10:45.526Z,98350.58
2018-08-19T05:13:13.342Z,98351.09
2018-08-19T05:15:41.633Z,98350.22
2018-08-19T05:18:09.531Z,98353.59
2018-08-19T05:20:37.199Z,98359.98
2018-08-19T05:23:04.938Z,98358.67
2018-08-19T05:25:32.727Z,98365.83
2018-08-19T05:28:06.594Z,98370.16
2018-08-19T05:30:35.221Z,98367.73
2018-08-19T05:33:04.058Z,98366.97
2018-08-19T05:35:32.742Z,98370.82
2018-08-19T05:38:01.509Z,98371.28
2018-08-19T05:40:29.374Z,98376.95
2018-08-19T05:42:57.072Z,98380.53
2018-08-19T05:45:24.722Z,98383.53
2018-08-19T05:48:04.583Z,98377.66
2018-08-19T05:50:32.428Z,98375.73
2018-08-19T05:53:00.045Z,98373.72
2018-08-19T05:55:27.790Z,98373.53
2018-08-19T05:57:55.436Z,98372.54
2018-08-19T06:00:24.167Z,98375.77
2018-08-19T06:02:52.998Z,98384.58
2018-08-19T06:05:20.788Z,98391.27
2018-08-19T06:07:55.740Z,98383.45
2018-08-19T06:10:24.121Z,98388.97
2018-08-19T06:12:51.734Z,98388.72
2018-08-19T06:15:19.533Z,98396.45
2018-08-19T06:17:47.181Z,98389.19
2018-08-19T06:20:14.964Z,98389.95
2018-08-19T06:22:42.591Z,98398.03
2018-08-19T06:25:10.951Z,98397.65
2018-08-19T06:27:44.702Z,98393.90
2018-08-19T06:30:13.303Z,98400.90
2018-08-19T06:32:41.102Z,98396.12
2018-08-19T06:35:08.882Z,98392.55
2018-08-19T06:37:36.529Z,98394.10
2018-08-19T06:40:05.520Z,98385.09
2018-08-19T06:42:33.179Z,98397.03
2018-08-19T06:45:00.811Z,98393.93
2018-08-19T06:47:29.574Z,98393.16
2018-08-19T06:49:58.449Z,98384.91
2018-08-19T06:52:26.600Z,98393.33
2018-08-19T06:54:54.526Z,98392.85
2018-08-19T06:57:22.247Z,98390.29
2018-08-19T06:59:50.018Z,98387.94
2018-08-19T07:02:17.786Z,98387.28
2018-08-19T07:04:46.686Z,98391.48
2018-08-19T07:07:15.496Z,98380.42
2018-08-19T07:09:43.208Z,98386.31
2018-08-19T07:12:17.341Z,98385.25
2018-08-19T07:14:45.535Z,98389.61
2018-08-19T07:17:13.506Z,98393.91
2018-08-19T07:19:41.256Z,98397.40
2018-08-19T07:22:09.351Z,98397.17
2018-08-19T07:24:38.835Z,98397.73
2018-08-19T07:27:08.250Z,98393.05
2018-08-19T07:29:35.912Z,98395.28
2018-08-19T07:32:03.738Z,98399.74
2018-08-19T07:34:31.429Z,98402.68
2018-08-19T07:36:59.152Z,98397.90
2018-08-19T07:39:27.191Z,98395.36
2018-08-19T07:41:55.035Z,98391.28
2018-08-19T07:44:22.770Z,98392.04
2018-08-19T07:46:50.448Z,98394.88
2018-08-19T07:49:18.100Z,98390.80
2018-08-19T07:51:45.911Z,98390.91
2018-08-19T07:54:13.450Z,98382.34
2018-08-19T07:56:41.102Z,98383.47
2018-08-19T07:59:10.174Z,98389.80
2018-08-19T08:01:38.738Z,98387.16
2018-08-19T08:04:06.902Z,98391.98
2018-08-19T08:06:35.138Z,98386.39
2018-08-19T08:09:06.033Z,98389.70
2018-08-19T08:11:34.121Z,98388.96
2018-08-19T08:14:02.334Z,98387.38
2018-08-19T08:16:30.148Z,98388.01
2018-08-19T08:18:58.063Z,98388.50
2018-08-19T08:21:29.129Z,98387.30
2018-08-19T08:23:56.946Z,98384.58
2018-08-19T08:26:25.013Z,98386.51
2018-08-19T08:28:58.078Z,98386.20
2018-08-19T08:31:25.823Z,98381.69
2018-08-19T08:33:53.429Z,98371.73
2018-08-19T08:36:21.086Z,98377.05
2018-08-19T08:38:48.823Z,98375.84
2018-08-19T08:41:16.421Z,98375.05
2018-08-19T08:43:44.120Z,98378.07
2018-08-19T08:46:11.847Z,98372.64
2018-08-19T08:48:39.536Z,98375.88
2018-08-19T08:51:07.192Z,98365.44
2018-08-19T08:53:42.144Z,98362.03
2018-08-19T08:56:09.842Z,98366.22
2018-08-19T08:58:37.509Z,98358.64
2018-08-19T09:01:05.245Z,98363.86
2018-08-19T09:03:32.894Z,98352.61
2018-08-19T09:06:00.515Z,98353.89
2018-08-19T09:08:28.438Z,98352.25
2018-08-19T09:10:57.381Z,98344.63
2018-08-19T09:13:25.052Z,98350.02
2018-08-19T09:15:52.699Z,98347.84
2018-08-19T09:18:20.415Z,98348.83
2018-08-19T09:20:48.027Z,98344.23
2018-08-19T09:23:15.824Z,98341.55
2018-08-19T09:25:43.394Z,98335.62
2018-08-19T09:28:11.080Z,98330.78
2018-08-19T09:30:41.423Z,98336.16
2018-08-19T09:33:09.374Z,98330.96
2018-08-19T09:35:38.091Z,98324.81
2018-08-19T09:38:13.122Z,98317.91
2018-08-19T09:40:41.095Z,98314.09
2018-08-19T09:43:09.130Z,98315.69
2018-08-19T09:45:37.020Z,98304.36
2018-08-19T09:48:05.383Z,98302.55
2018-08-19T09:50:33.974Z,98306.39
2018-08-19T09:53:01.899Z,98304.11
2018-08-19T09:55:35.039Z,98296.44
2018-08-19T09:58:02.838Z,98292.02
2018-08-19T10:00:36.076Z,98297.41
2018-08-19T10:03:03.888Z,98293.81
2018-08-19T10:05:33.448Z,98293.59
2018-08-19T10:08:01.312Z,98284.72
2018-08-19T10:10:29.554Z,98288.64
2018-08-19T10:12:57.319Z,98287.77
2018-08-19T10:15:24.952Z,98289.98
2018-08-19T10:17:52.609Z,98280.06
2018-08-19T10:20:20.294Z,98263.99
2018-08-19T10:22:48.027Z,98272.51
2018-08-19T10:25:17.662Z,98270.91
2018-08-19T10:27:49.755Z,98267.34
2018-08-19T10:30:18.484Z,98269.67
2018-08-19T10:32:50.211Z,98261.91
2018-08-19T10:35:18.375Z,98268.03
2018-08-19T10:37:46.500Z,98263.50
2018-08-19T10:40:14.211Z,98257.19
2018-08-19T10:42:42.122Z,98258.15
2018-08-19T10:45:17.245Z,98246.40
2018-08-19T10:47:44.924Z,98246.57
2018-08-19T10:50:12.620Z,98253.40
2018-08-19T10:52:41.436Z,98249.27
2018-08-19T10:55:10.086Z,98241.59
2018-08-19T10:57:38.083Z,98248.14
2018-08-19T11:00:10.600Z,98239.49
2018-08-19T11:02:38.275Z,98236.59
2018-08-19T11:05:05.956Z,98240.23
2018-08-19T11:07:33.591Z,98236.12
2018-08-19T11:10:16.768Z,98228.92
2018-08-19T11:12:45.198Z,98228.20
2018-08-19T11:15:27.412Z,98231.45
2018-08-19T11:17:55.464Z,98228.55
2018-08-19T11:20:38.627Z,98219.22
2018-08-19T11:23:10.786Z,98213.34
2018-08-19T11:25:38.395Z,98214.22
2018-08-19T11:28:48.569Z,98214.31
2018-08-19T11:31:23.689Z,98209.20
2018-08-19T11:33:52.372Z,98210.16
2018-08-19T11:36:21.590Z,98209.23
2018-08-19T11:38:50.998Z,98206.78
2018-08-19T11:41:19.150Z,98200.83
2018-08-19T11:43:47.948Z,98203.95
2018-08-19T11:46:15.662Z,98193.02
2018-08-19T11:48:43.490Z,98189.25
2018-08-19T11:51:11.435Z,98188.77
2018-08-19T11:53:39.074Z,98194.63
2018-08-19T11:56:06.892Z,98183.07
2018-08-19T11:58:44.229Z,98177.20
2018-08-19T12:01:13.041Z,98180.75
2018-08-19T12:03:54.568Z,98175.97
2018-08-19T12:06:24.717Z,98182.81
2018-08-19T12:08:53.444Z,98181.73
2018-08-19T12:11:21.208Z,98176.72
2018-08-19T12:13:52.070Z,98169.64
2018-08-19T12:16:21.731Z,98164.88
2018-08-19T12:18:49.671Z,98169.34
2018-08-19T12:21:17.403Z,98162.66
2018-08-19T12:23:45.143Z,98166.69
2018-08-19T12:26:12.718Z,98155.63
2018-08-19T12:28:40.347Z,98151.27
2018-08-19T12:31:10.196Z,98138.02
2018-08-19T12:33:37.787Z,98142.50
2018-08-19T12:36:06.118Z,98140.48
2018-08-19T12:38:33.788Z,98133.49
2018-08-19T12:41:03.511Z,98129.62
2018-08-19T12:43:31.780Z,98125.74
2018-08-19T12:45:59.932Z,98123.46
2018-08-19T12:48:27.771Z,98117.34
2018-08-19T12:50:59.953Z,98121.62
2018-08-19T12:53:27.529Z,98121.61
2018-08-19T12:55:55.168Z,98113.10
2018-08-19T12:58:22.942Z,98107.94
2018-08-19T13:00:50.544Z,98101.63
2018-08-19T13:03:18.233Z,98098.20
2018-08-19T13:05:59.471Z,98095.23
2018-08-19T13:08:27.240Z,98090.83
2018-08-19T13:10:54.920Z,98084.67
2018-08-19T13:13:22.618Z,98085.72
2018-08-19T13:15:50.254Z,98083.61
2018-08-19T13:18:28.263Z,98078.41
2018-08-19T13:21:03.186Z,98066.23
2018-08-19T13:23:32.554Z,98075.02
2018-08-19T13:26:00.636Z,98071.91
2018-08-19T13:28:28.403Z,98073.41
2018-08-19T13:30:56.283Z,98062.16
2018-08-19T13:33:24.723Z,98057.87
2018-08-19T13:35:52.621Z,98064.55
2018-08-19T13:38:33.259Z,98069.66
2018-08-19T13:41:02.664Z,98062.91
2018-08-19T13:43:30.317Z,98061.00
2018-08-19T13:45:58.040Z,98054.94
2018-08-19T13:48:25.706Z,98053.04
2018-08-19T13:50:53.344Z,98046.59
2018-08-19T13:53:21.096Z,98046.97
2018-08-19T13:55:48.723Z,98043.11
2018-08-19T13:58:16.529Z,98052.53
2018-08-19T14:00:44.629Z,98046.19
2018-08-19T14:03:12.526Z,98037.04
2018-08-19T14:05:40.309Z,98034.82
2018-08-19T14:08:07.924Z,98039.71
2018-08-19T14:10:35.543Z,98025.92
2018-08-19T14:13:03.452Z,98027.15
2018-08-19T14:15:31.163Z,98024.44
2018-08-19T14:17:58.774Z,98026.02
2018-08-19T14:20:26.400Z,98022.46
2018-08-19T14:22:54.134Z,98026.27
2018-08-19T14:25:21.872Z,98017.59
2018-08-19T14:27:49.519Z,98020.62
2018-08-19T14:30:17.470Z,98021.91
2018-08-19T14:32:46.091Z,98014.92
2018-08-19T14:35:13.736Z,98015.50
2018-08-19T14:37:41.636Z,98005.15
2018-08-19T14:40:13.453Z,98007.47
2018-08-19T14:42:41.259Z,98005.25
2018-08-19T14:45:08.934Z,98000.73
2018-08-19T14:47:36.555Z,98003.10
2018-08-19T14:50:08.106Z,97998.48
2018-08-19T14:52:35.804Z,98004.56
2018-08-19T14:55:03.648Z,98004.77
2018-08-19T14:57:31.301Z,97996.53
2018-08-19T14:59:59.002Z,97992.19
2018-08-19T15:02:26.610Z,97985.41
2018-08-19T15:04:54.229Z,97992.06
2018-08-19T15:07:21.878Z,97989.15
2018-08-19T15:09:51.104Z,97993.17
2018-08-19T15:12:22.957Z,97985.72
2018-08-19T15:14:51.018Z,97988.94
2018-08-19T15:17:18.727Z,97983.50
2018-08-19T15:19:48.635Z,97977.88
2018-08-19T15:22:16.475Z,97975.59
2018-08-19T15:24:44.064Z,97975.53
2018-08-19T15:27:11.754Z,97975.66
2018-08-19T15:29:41.939Z,97971.88
2018-08-19T15:32:09.946Z,97977.05
2018-08-19T15:34:37.463Z,97975.27
2018-08-19T15:37:05.320Z,97972.30
2018-08-19T15:39:32.929Z,97963.08
2018-08-19T15:42:00.571Z,97964.78
2018-08-19T15:44:28.239Z,97957.80
2018-08-19T15:46:55.860Z,97962.08
2018-08-19T15:49:24.022Z,97956.92
2018-08-19T15:51:51.901Z,97955.05
2018-08-19T15:54:19.622Z,97952.39
2018-08-19T15:56:47.315Z,97954.06
2018-08-19T15:59:14.907Z,97951.96
2018-08-19T16:01:42.703Z,97947.41
2018-08-19T16:04:21.989Z,97949.62
2018-08-19T16:06:51.142Z,97943.00
2018-08-19T16:09:20.111Z,97945.19
2018-08-19T16:11:48.415Z,97944.85
2018-08-19T16:14:22.150Z,97944.19
2018-08-19T16:16:49.868Z,97939.58
2018-08-19T16:19:17.592Z,97939.45
2018-08-19T16:21:46.642Z,97940.25
2018-08-19T16:24:14.294Z,97942.23
2018-08-19T16:26:42.188Z,97943.75
2018-08-19T16:29:09.808Z,97936.59
2018-08-19T16:31:37.644Z,97936.95
2018-08-19T16:34:05.533Z,97938.70
2018-08-19T16:36:33.244Z,97947.41
2018-08-19T16:39:01.047Z,97933.88
2018-08-19T16:41:28.848Z,97929.45
2018-08-19T16:43:56.758Z,97931.83
2018-08-19T16:46:24.546Z,97931.28
2018-08-19T16:48:52.226Z,97924.98
2018-08-19T16:51:20.001Z,97925.89
2018-08-19T16:53:47.627Z,97927.23
2018-08-19T16:56:15.314Z,97927.14
2018-08-19T16:58:42.930Z,97919.37
2018-08-19T17:01:10.704Z,97932.69
2018-08-19T17:03:39.422Z,97931.61
2018-08-19T17:06:10.071Z,97929.71
2018-08-19T17:08:38.155Z,97927.63
2018-08-19T17:11:06.028Z,97926.58
2018-08-19T17:13:33.683Z,97924.42
2018-08-19T17:16:01.316Z,97921.61
2018-08-19T17:18:28.992Z,97916.57
2018-08-19T17:20:56.632Z,97921.47
2018-08-19T17:23:24.786Z,97922.27
2018-08-19T17:25:52.390Z,97924.98
2018-08-19T17:28:22.075Z,97922.16
2018-08-19T17:30:51.293Z,97927.95
2018-08-19T17:33:23.364Z,97919.69
2018-08-19T17:35:50.981Z,97925.10
2018-08-19T17:38:18.679Z,97924.40
2018-08-19T17:40:46.329Z,97923.77
2018-08-19T17:43:13.923Z,97924.84
2018-08-19T17:45:41.798Z,97924.70
2018-08-19T17:48:09.597Z,97922.58
2018-08-19T17:50:37.579Z,97933.52
2018-08-19T17:53:05.687Z,97927.06
2018-08-19T17:55:33.450Z,97927.69
2018-08-19T17:58:01.223Z,97925.14
2018-08-19T18:00:28.904Z,97931.17
2018-08-19T18:02:56.531Z,97929.77
2018-08-19T18:05:24.210Z,97934.01
2018-08-19T18:07:52.878Z,97931.62
2018-08-19T18:10:20.532Z,97935.00
2018-08-19T18:12:48.447Z,97941.69
2018-08-19T18:15:16.311Z,97938.38
2018-08-19T18:17:57.308Z,97937.59
2018-08-19T18:20:26.505Z,97944.81
2018-08-19T18:22:55.530Z,97942.87
2018-08-19T18:25:24.506Z,97947.77
2018-08-19T18:27:52.134Z,97946.92
2018-08-19T18:30:21.609Z,97947.48
2018-08-19T18:32:49.948Z,97946.75
2018-08-19T18:35:17.811Z,97950.61
2018-08-19T18:37:45.692Z,97948.47
2018-08-19T18:40:33.222Z,97950.19
2018-08-19T18:43:01.623Z,97949.08
2018-08-19T18:45:29.419Z,97948.19
2018-08-19T18:48:01.922Z,97952.95
2018-08-19T18:50:29.637Z,97953.39
2018-08-19T18:52:57.339Z,97954.47
2018-08-19T18:55:25.164Z,97950.97
2018-08-19T18:57:54.859Z,97955.99
2018-08-19T19:00:24.422Z,97953.74
2018-08-19T19:02:59.144Z,97958.72
2018-08-19T19:05:38.920Z,97951.67
2018-08-19T19:08:17.197Z,97954.95
2018-08-19T19:11:19.351Z,97952.17
2018-08-19T19:13:47.307Z,97953.36
2018-08-19T19:16:19.058Z,97958.05
2018-08-19T19:18:46.694Z,97955.42
2018-08-19T19:21:14.302Z,97956.51
2018-08-19T19:23:43.701Z,97961.86
2018-08-19T19:26:11.455Z,97960.83
2018-08-19T19:28:39.081Z,97955.99
2018-08-19T19:31:11.739Z,97950.09
2018-08-19T19:33:39.391Z,97945.88
2018-08-19T19:36:15.641Z,97951.13
2018-08-19T19:38:59.022Z,97946.41
2018-08-19T19:41:31.733Z,97944.66
2018-08-19T19:45:04.136Z,97941.86
2018-08-19T19:47:31.759Z,97940.90
2018-08-19T19:49:59.663Z,97943.05
2018-08-19T19:52:27.705Z,97943.28
2018-08-19T19:54:55.404Z,97944.07
2018-08-19T19:57:23.066Z,97946.60
2018-08-19T19:59:50.742Z,97950.52
2018-08-19T20:02:30.925Z,97951.59
2018-08-19T20:04:59.099Z,97954.23
2018-08-19T20:07:27.193Z,97954.33
2018-08-19T20:09:54.945Z,97951.97
2018-08-19T20:12:28.595Z,97953.80
2018-08-19T20:14:57.211Z,97955.12
2018-08-19T20:17:24.798Z,97955.91
2018-08-19T20:19:52.383Z,97960.47
2018-08-19T20:22:20.150Z,97956.23
2018-08-19T20:24:47.889Z,97966.22
2018-08-19T20:27:15.974Z,97963.41
2018-08-19T20:29:43.751Z,97959.15
2018-08-19T20:32:11.370Z,97964.27
2018-08-19T20:34:39.014Z,97965.34
2018-08-19T20:37:06.656Z,97965.42
2018-08-19T20:39:34.303Z,97958.90
2018-08-19T20:42:01.932Z,97960.98
2018-08-19T20:44:29.622Z,97960.70
2018-08-19T20:46:57.823Z,97959.95
2018-08-19T20:49:26.395Z,97959.75
2018-08-19T20:51:55.061Z,97958.80
2018-08-19T20:54:22.702Z,97965.16
2018-08-19T20:56:50.300Z,97966.95
2018-08-19T20:59:25.471Z,97959.30
2018-08-19T21:01:53.223Z,97969.99
2018-08-19T21:04:20.873Z,97961.98
2018-08-19T21:06:48.536Z,97961.97
2018-08-19T21:09:16.120Z,97956.22
2018-08-19T21:11:43.704Z,97960.56
2018-08-19T21:14:11.491Z,97952.36
2018-08-19T21:16:39.093Z,97960.86
2018-08-19T21:19:06.939Z,97960.40
2018-08-19T21:21:34.852Z,97965.21
2018-08-19T21:24:02.475Z,97966.52
2018-08-19T21:26:30.124Z,97962.62
2018-08-19T21:29:03.408Z,97959.52
2018-08-19T21:31:32.095Z,97964.23
2018-08-19T21:33:59.962Z,97963.20
2018-08-19T21:36:27.864Z,97958.66
2018-08-19T21:38:55.714Z,97959.91
2018-08-19T21:41:31.316Z,97961.02
2018-08-19T21:43:58.912Z,97961.51
2018-08-19T21:46:26.752Z,97960.55
2018-08-19T21:48:54.454Z,97964.04
2018-08-19T21:51:22.036Z,97967.34
2018-08-19T21:53:49.621Z,97965.67
2018-08-19T21:56:17.234Z,97961.51
2018-08-19T21:58:44.832Z,97964.70
2018-08-19T22:01:18.118Z,97969.05
2018-08-19T22:03:48.941Z,97964.67
2018-08-19T22:06:16.622Z,97967.89
2018-08-19T22:08:44.380Z,97969.70
2018-08-19T22:11:12.040Z,97974.50
2018-08-19T22:13:39.661Z,97968.73
2018-08-19T22:16:07.347Z,97971.77
2018-08-19T22:18:35.131Z,97972.52
2018-08-19T22:21:23.840Z,97971.19
2018-08-19T22:23:55.112Z,97970.07
2018-08-19T22:26:22.756Z,97975.18
2018-08-19T22:29:06.989Z,97969.92
2018-08-19T22:31:34.652Z,97975.86
2018-08-19T22:34:02.262Z,97969.14
2018-08-19T22:36:30.095Z,97973.13
2018-08-19T22:38:57.720Z,97965.28
2018-08-19T22:41:27.705Z,97968.86
2018-08-19T22:43:56.028Z,97967.73
2018-08-19T22:46:24.015Z,97965.47
2018-08-19T22:48:52.818Z,97974.99
2018-08-19T22:51:20.801Z,97963.48
2018-08-19T22:53:51.222Z,97969.05
2018-08-19T22:56:19.427Z,97968.95
2018-08-19T22:58:47.130Z,97962.06
2018-08-19T23:01:14.917Z,97966.66
2018-08-19T23:03:42.674Z,97963.80
2018-08-19T23:06:10.350Z,97966.36
2018-08-19T23:08:38.201Z,97977.59
2018-08-19T23:11:05.854Z,97980.70
2018-08-19T23:13:44.846Z,97978.09
2018-08-19T23:16:13.037Z,97973.05
2018-08-19T23:18:41.477Z,97975.88
2018-08-19T23:21:09.498Z,97976.53
2018-08-19T23:23:37.238Z,97973.91
2018-08-19T23:26:05.295Z,97971.94
2018-08-19T23:28:32.930Z,97973.91
2018-08-19T23:31:00.547Z,97972.22
2018-08-19T23:33:28.179Z,97968.97
2018-08-19T23:35:55.783Z,97976.22
2018-08-19T23:38:23.415Z,97967.80
2018-08-19T23:40:51.096Z,97974.48
2018-08-19T23:43:18.763Z,97976.72
2018-08-19T23:45:46.413Z,97970.27
2018-08-19T23:48:13.991Z,97972.15
2018-08-19T23:50:41.633Z,97975.25
2018-08-19T23:53:10.566Z,97966.34
2018-08-19T23:55:38.585Z,97966.87
2018-08-19T23:58:06.398Z,97961.62
